sensor_id;sensor_type;location;lat;lon;timestamp;P1;durP1;ratioP1;P2;durP2;ratioP2
9465;SDS011;4771;48.726;9.006;2023-05-07T00:01:37;2.30;;;1.85;;
9465;SDS011;4771;48.726;9.006;2023-05-07T00:04:04;4.10;;;1.95;;
9465;SDS011;4771;48.726;9.006;2023-05-07T00:06:32;2.25;;;2.05;;
9465;SDS011;4771;48.726;9.006;2023-05-07T00:09:00;5.25;;;2.20;;
9465;SDS011;4771;48.726;9.006;2023-05-07T00:11:29;2.72;;;1.98;;
9465;SDS011;4771;48.726;9.006;2023-05-07T00:13:56;4.60;;;2.03;;
9465;SDS011;4771;48.726;9.006;2023-05-07T00:16:23;2.47;;;1.80;;
9465;SDS011;4771;48.726;9.006;2023-05-07T00:18:50;5.30;;;2.17;;
9465;SDS011;4771;48.726;9.006;2023-05-07T00:21:16;2.30;;;1.92;;
9465;SDS011;4771;48.726;9.006;2023-05-07T00:23:43;3.60;;;2.25;;
9465;SDS011;4771;48.726;9.006;2023-05-07T00:26:11;3.67;;;1.92;;
9465;SDS011;4771;48.726;9.006;2023-05-07T00:28:38;2.63;;;1.98;;
9465;SDS011;4771;48.726;9.006;2023-05-07T00:31:05;5.00;;;2.00;;
9465;SDS011;4771;48.726;9.006;2023-05-07T00:33:32;2.60;;;2.05;;
9465;SDS011;4771;48.726;9.006;2023-05-07T00:35:59;5.95;;;2.10;;
9465;SDS011;4771;48.726;9.006;2023-05-07T00:38:27;2.63;;;2.17;;
9465;SDS011;4771;48.726;9.006;2023-05-07T00:40:53;3.90;;;2.20;;
9465;SDS011;4771;48.726;9.006;2023-05-07T00:43:22;2.60;;;2.10;;
9465;SDS011;4771;48.726;9.006;2023-05-07T00:45:48;2.50;;;2.20;;
9465;SDS011;4771;48.726;9.006;2023-05-07T00:48:15;2.28;;;2.08;;
9465;SDS011;4771;48.726;9.006;2023-05-07T00:50:43;4.05;;;2.10;;
9465;SDS011;4771;48.726;9.006;2023-05-07T00:53:12;4.15;;;2.00;;
9465;SDS011;4771;48.726;9.006;2023-05-07T00:55:39;2.60;;;2.00;;
9465;SDS011;4771;48.726;9.006;2023-05-07T00:58:06;2.72;;;1.85;;
9465;SDS011;4771;48.726;9.006;2023-05-07T01:00:34;2.30;;;2.10;;
9465;SDS011;4771;48.726;9.006;2023-05-07T01:03:01;3.95;;;2.00;;
9465;SDS011;4771;48.726;9.006;2023-05-07T01:05:29;2.42;;;2.08;;
9465;SDS011;4771;48.726;9.006;2023-05-07T01:07:56;2.55;;;2.10;;
9465;SDS011;4771;48.726;9.006;2023-05-07T01:10:24;2.67;;;1.77;;
9465;SDS011;4771;48.726;9.006;2023-05-07T01:12:51;3.30;;;2.08;;
9465;SDS011;4771;48.726;9.006;2023-05-07T01:15:19;3.47;;;2.30;;
9465;SDS011;4771;48.726;9.006;2023-05-07T01:17:47;2.35;;;1.90;;
9465;SDS011;4771;48.726;9.006;2023-05-07T01:20:14;2.58;;;1.95;;
9465;SDS011;4771;48.726;9.006;2023-05-07T01:22:42;2.97;;;1.80;;
9465;SDS011;4771;48.726;9.006;2023-05-07T01:25:09;2.30;;;1.90;;
9465;SDS011;4771;48.726;9.006;2023-05-07T01:27:41;3.92;;;2.08;;
9465;SDS011;4771;48.726;9.006;2023-05-07T01:30:08;3.15;;;1.98;;
9465;SDS011;4771;48.726;9.006;2023-05-07T01:32:37;3.78;;;1.80;;
9465;SDS011;4771;48.726;9.006;2023-05-07T01:35:09;2.03;;;1.83;;
9465;SDS011;4771;48.726;9.006;2023-05-07T01:37:37;2.40;;;1.80;;
9465;SDS011;4771;48.726;9.006;2023-05-07T01:40:07;3.03;;;1.95;;
9465;SDS011;4771;48.726;9.006;2023-05-07T01:42:34;5.13;;;2.40;;
9465;SDS011;4771;48.726;9.006;2023-05-07T01:45:02;3.10;;;1.83;;
9465;SDS011;4771;48.726;9.006;2023-05-07T01:47:29;2.30;;;1.70;;
9465;SDS011;4771;48.726;9.006;2023-05-07T01:49:56;2.80;;;1.90;;
9465;SDS011;4771;48.726;9.006;2023-05-07T01:52:24;3.33;;;1.63;;
9465;SDS011;4771;48.726;9.006;2023-05-07T01:54:51;3.25;;;1.80;;
9465;SDS011;4771;48.726;9.006;2023-05-07T01:57:19;3.38;;;1.80;;
9465;SDS011;4771;48.726;9.006;2023-05-07T01:59:46;1.98;;;1.75;;
9465;SDS011;4771;48.726;9.006;2023-05-07T02:02:13;2.28;;;1.83;;
9465;SDS011;4771;48.726;9.006;2023-05-07T02:04:40;3.22;;;1.73;;
9465;SDS011;4771;48.726;9.006;2023-05-07T02:07:07;4.60;;;2.05;;
9465;SDS011;4771;48.726;9.006;2023-05-07T02:09:34;2.85;;;1.60;;
9465;SDS011;4771;48.726;9.006;2023-05-07T02:12:00;3.22;;;1.88;;
9465;SDS011;4771;48.726;9.006;2023-05-07T02:14:29;2.13;;;1.90;;
9465;SDS011;4771;48.726;9.006;2023-05-07T02:16:55;1.90;;;1.77;;
9465;SDS011;4771;48.726;9.006;2023-05-07T02:19:22;3.70;;;2.00;;
9465;SDS011;4771;48.726;9.006;2023-05-07T02:21:50;3.15;;;1.90;;
9465;SDS011;4771;48.726;9.006;2023-05-07T02:24:17;5.22;;;1.80;;
9465;SDS011;4771;48.726;9.006;2023-05-07T02:26:43;4.55;;;2.17;;
9465;SDS011;4771;48.726;9.006;2023-05-07T02:29:10;3.13;;;1.98;;
9465;SDS011;4771;48.726;9.006;2023-05-07T02:31:38;2.10;;;1.90;;
9465;SDS011;4771;48.726;9.006;2023-05-07T02:34:05;2.08;;;1.77;;
9465;SDS011;4771;48.726;9.006;2023-05-07T02:36:32;3.03;;;2.03;;
9465;SDS011;4771;48.726;9.006;2023-05-07T02:38:59;1.80;;;1.70;;
9465;SDS011;4771;48.726;9.006;2023-05-07T02:41:27;7.25;;;1.80;;
9465;SDS011;4771;48.726;9.006;2023-05-07T02:43:54;4.90;;;2.20;;
9465;SDS011;4771;48.726;9.006;2023-05-07T02:46:21;3.50;;;1.95;;
9465;SDS011;4771;48.726;9.006;2023-05-07T02:48:49;4.97;;;2.05;;
9465;SDS011;4771;48.726;9.006;2023-05-07T02:51:17;3.85;;;2.00;;
9465;SDS011;4771;48.726;9.006;2023-05-07T02:53:46;4.93;;;2.13;;
9465;SDS011;4771;48.726;9.006;2023-05-07T02:56:13;3.15;;;2.10;;
9465;SDS011;4771;48.726;9.006;2023-05-07T02:58:40;2.63;;;1.95;;
9465;SDS011;4771;48.726;9.006;2023-05-07T03:01:07;3.15;;;1.88;;
9465;SDS011;4771;48.726;9.006;2023-05-07T03:03:34;3.30;;;2.00;;
9465;SDS011;4771;48.726;9.006;2023-05-07T03:06:02;4.70;;;1.70;;
9465;SDS011;4771;48.726;9.006;2023-05-07T03:08:29;2.08;;;1.85;;
9465;SDS011;4771;48.726;9.006;2023-05-07T03:10:56;2.05;;;1.85;;
9465;SDS011;4771;48.726;9.006;2023-05-07T03:13:23;2.08;;;1.80;;
9465;SDS011;4771;48.726;9.006;2023-05-07T03:15:50;3.22;;;1.80;;
9465;SDS011;4771;48.726;9.006;2023-05-07T03:18:17;3.40;;;2.00;;
9465;SDS011;4771;48.726;9.006;2023-05-07T03:20:44;2.40;;;1.70;;
9465;SDS011;4771;48.726;9.006;2023-05-07T03:23:12;3.28;;;1.67;;
9465;SDS011;4771;48.726;9.006;2023-05-07T03:25:39;3.30;;;1.85;;
9465;SDS011;4771;48.726;9.006;2023-05-07T03:28:06;3.47;;;1.80;;
9465;SDS011;4771;48.726;9.006;2023-05-07T03:30:32;2.05;;;1.85;;
9465;SDS011;4771;48.726;9.006;2023-05-07T03:32:59;3.15;;;2.30;;
9465;SDS011;4771;48.726;9.006;2023-05-07T03:35:26;3.35;;;2.10;;
9465;SDS011;4771;48.726;9.006;2023-05-07T03:37:53;2.95;;;2.45;;
9465;SDS011;4771;48.726;9.006;2023-05-07T03:40:21;4.22;;;2.22;;
9465;SDS011;4771;48.726;9.006;2023-05-07T03:42:48;2.53;;;2.22;;
9465;SDS011;4771;48.726;9.006;2023-05-07T03:45:15;2.40;;;2.20;;
9465;SDS011;4771;48.726;9.006;2023-05-07T03:47:42;2.33;;;2.10;;
9465;SDS011;4771;48.726;9.006;2023-05-07T03:50:09;6.20;;;2.05;;
9465;SDS011;4771;48.726;9.006;2023-05-07T03:52:36;3.45;;;2.05;;
9465;SDS011;4771;48.726;9.006;2023-05-07T03:55:03;2.92;;;2.08;;
9465;SDS011;4771;48.726;9.006;2023-05-07T03:57:32;2.25;;;2.05;;
9465;SDS011;4771;48.726;9.006;2023-05-07T03:59:59;2.10;;;1.90;;
9465;SDS011;4771;48.726;9.006;2023-05-07T04:02:26;2.80;;;2.03;;
9465;SDS011;4771;48.726;9.006;2023-05-07T04:04:53;2.13;;;1.83;;
9465;SDS011;4771;48.726;9.006;2023-05-07T04:07:20;2.80;;;2.05;;
9465;SDS011;4771;48.726;9.006;2023-05-07T04:09:46;3.55;;;1.83;;
9465;SDS011;4771;48.726;9.006;2023-05-07T04:12:14;3.63;;;1.77;;
9465;SDS011;4771;48.726;9.006;2023-05-07T04:14:43;2.70;;;1.90;;
9465;SDS011;4771;48.726;9.006;2023-05-07T04:17:10;2.08;;;1.70;;
9465;SDS011;4771;48.726;9.006;2023-05-07T04:19:37;2.13;;;1.77;;
9465;SDS011;4771;48.726;9.006;2023-05-07T04:22:04;2.88;;;1.98;;
9465;SDS011;4771;48.726;9.006;2023-05-07T04:24:31;2.15;;;1.88;;
9465;SDS011;4771;48.726;9.006;2023-05-07T04:26:58;2.20;;;2.00;;
9465;SDS011;4771;48.726;9.006;2023-05-07T04:29:26;2.03;;;1.83;;
9465;SDS011;4771;48.726;9.006;2023-05-07T04:31:54;2.90;;;2.20;;
9465;SDS011;4771;48.726;9.006;2023-05-07T04:34:21;2.35;;;2.15;;
9465;SDS011;4771;48.726;9.006;2023-05-07T04:36:48;4.38;;;2.30;;
9465;SDS011;4771;48.726;9.006;2023-05-07T04:39:15;3.90;;;2.33;;
9465;SDS011;4771;48.726;9.006;2023-05-07T04:41:42;2.40;;;2.15;;
9465;SDS011;4771;48.726;9.006;2023-05-07T04:44:09;6.22;;;2.20;;
9465;SDS011;4771;48.726;9.006;2023-05-07T04:46:36;4.15;;;2.25;;
9465;SDS011;4771;48.726;9.006;2023-05-07T04:49:04;4.57;;;1.83;;
9465;SDS011;4771;48.726;9.006;2023-05-07T04:51:31;2.83;;;2.00;;
9465;SDS011;4771;48.726;9.006;2023-05-07T04:53:58;3.25;;;2.30;;
9465;SDS011;4771;48.726;9.006;2023-05-07T04:56:27;5.35;;;2.28;;
9465;SDS011;4771;48.726;9.006;2023-05-07T04:58:54;3.35;;;2.22;;
9465;SDS011;4771;48.726;9.006;2023-05-07T05:01:21;3.25;;;2.30;;
9465;SDS011;4771;48.726;9.006;2023-05-07T05:03:48;3.47;;;2.10;;
9465;SDS011;4771;48.726;9.006;2023-05-07T05:06:16;3.40;;;2.47;;
9465;SDS011;4771;48.726;9.006;2023-05-07T05:08:43;3.53;;;2.25;;
9465;SDS011;4771;48.726;9.006;2023-05-07T05:11:10;3.03;;;2.22;;
9465;SDS011;4771;48.726;9.006;2023-05-07T05:13:37;2.45;;;2.17;;
9465;SDS011;4771;48.726;9.006;2023-05-07T05:16:04;2.47;;;2.05;;
9465;SDS011;4771;48.726;9.006;2023-05-07T05:18:31;3.58;;;2.35;;
9465;SDS011;4771;48.726;9.006;2023-05-07T05:20:58;3.22;;;2.40;;
9465;SDS011;4771;48.726;9.006;2023-05-07T05:23:26;3.83;;;2.35;;
9465;SDS011;4771;48.726;9.006;2023-05-07T05:25:55;2.72;;;2.50;;
9465;SDS011;4771;48.726;9.006;2023-05-07T05:28:23;2.83;;;2.53;;
9465;SDS011;4771;48.726;9.006;2023-05-07T05:30:50;3.38;;;2.53;;
9465;SDS011;4771;48.726;9.006;2023-05-07T05:33:17;3.35;;;2.30;;
9465;SDS011;4771;48.726;9.006;2023-05-07T05:35:43;3.97;;;2.50;;
9465;SDS011;4771;48.726;9.006;2023-05-07T05:38:10;2.60;;;2.40;;
9465;SDS011;4771;48.726;9.006;2023-05-07T05:40:38;3.78;;;2.60;;
9465;SDS011;4771;48.726;9.006;2023-05-07T05:43:05;2.50;;;2.15;;
9465;SDS011;4771;48.726;9.006;2023-05-07T05:45:32;3.78;;;2.85;;
9465;SDS011;4771;48.726;9.006;2023-05-07T05:47:59;3.17;;;2.50;;
9465;SDS011;4771;48.726;9.006;2023-05-07T05:50:26;3.13;;;2.80;;
9465;SDS011;4771;48.726;9.006;2023-05-07T05:52:53;3.83;;;2.90;;
9465;SDS011;4771;48.726;9.006;2023-05-07T05:55:20;3.60;;;3.00;;
9465;SDS011;4771;48.726;9.006;2023-05-07T05:57:49;3.38;;;3.00;;
9465;SDS011;4771;48.726;9.006;2023-05-07T06:00:16;3.83;;;3.17;;
9465;SDS011;4771;48.726;9.006;2023-05-07T06:02:43;4.95;;;3.47;;
9465;SDS011;4771;48.726;9.006;2023-05-07T06:05:10;7.30;;;3.60;;
9465;SDS011;4771;48.726;9.006;2023-05-07T06:07:37;3.80;;;3.25;;
9465;SDS011;4771;48.726;9.006;2023-05-07T06:10:04;3.47;;;3.00;;
9465;SDS011;4771;48.726;9.006;2023-05-07T06:12:32;3.92;;;3.15;;
9465;SDS011;4771;48.726;9.006;2023-05-07T06:15:00;3.53;;;3.00;;
9465;SDS011;4771;48.726;9.006;2023-05-07T06:17:27;5.05;;;3.38;;
9465;SDS011;4771;48.726;9.006;2023-05-07T06:19:54;8.15;;;3.00;;
9465;SDS011;4771;48.726;9.006;2023-05-07T06:22:21;5.05;;;3.00;;
9465;SDS011;4771;48.726;9.006;2023-05-07T06:24:48;6.50;;;3.30;;
9465;SDS011;4771;48.726;9.006;2023-05-07T06:27:14;4.32;;;2.80;;
9465;SDS011;4771;48.726;9.006;2023-05-07T06:29:41;3.17;;;2.50;;
9465;SDS011;4771;48.726;9.006;2023-05-07T06:32:10;3.47;;;2.90;;
9465;SDS011;4771;48.726;9.006;2023-05-07T06:34:37;3.70;;;3.00;;
9465;SDS011;4771;48.726;9.006;2023-05-07T06:37:05;4.65;;;2.40;;
9465;SDS011;4771;48.726;9.006;2023-05-07T06:39:33;3.53;;;2.72;;
9465;SDS011;4771;48.726;9.006;2023-05-07T06:41:59;3.80;;;2.70;;
9465;SDS011;4771;48.726;9.006;2023-05-07T06:44:26;3.50;;;2.40;;
9465;SDS011;4771;48.726;9.006;2023-05-07T06:46:53;4.32;;;2.60;;
9465;SDS011;4771;48.726;9.006;2023-05-07T06:49:21;3.80;;;2.88;;
9465;SDS011;4771;48.726;9.006;2023-05-07T06:51:48;3.55;;;2.70;;
9465;SDS011;4771;48.726;9.006;2023-05-07T06:54:15;2.75;;;2.53;;
9465;SDS011;4771;48.726;9.006;2023-05-07T06:56:42;4.05;;;2.80;;
9465;SDS011;4771;48.726;9.006;2023-05-07T06:59:09;5.07;;;2.60;;
9465;SDS011;4771;48.726;9.006;2023-05-07T07:01:36;4.13;;;2.75;;
9465;SDS011;4771;48.726;9.006;2023-05-07T07:04:03;4.35;;;2.45;;
9465;SDS011;4771;48.726;9.006;2023-05-07T07:06:32;3.95;;;2.67;;
9465;SDS011;4771;48.726;9.006;2023-05-07T07:08:58;3.05;;;2.40;;
9465;SDS011;4771;48.726;9.006;2023-05-07T07:11:26;2.92;;;2.60;;
9465;SDS011;4771;48.726;9.006;2023-05-07T07:13:52;6.80;;;2.70;;
9465;SDS011;4771;48.726;9.006;2023-05-07T07:16:20;8.95;;;2.90;;
9465;SDS011;4771;48.726;9.006;2023-05-07T07:18:46;6.75;;;2.38;;
9465;SDS011;4771;48.726;9.006;2023-05-07T07:21:13;9.40;;;2.60;;
9465;SDS011;4771;48.726;9.006;2023-05-07T07:23:42;4.20;;;2.40;;
9465;SDS011;4771;48.726;9.006;2023-05-07T07:26:09;3.00;;;2.40;;
9465;SDS011;4771;48.726;9.006;2023-05-07T07:28:41;4.45;;;2.58;;
9465;SDS011;4771;48.726;9.006;2023-05-07T07:31:08;2.88;;;2.40;;
9465;SDS011;4771;48.726;9.006;2023-05-07T07:33:35;4.53;;;2.35;;
9465;SDS011;4771;48.726;9.006;2023-05-07T07:36:02;5.20;;;2.70;;
9465;SDS011;4771;48.726;9.006;2023-05-07T07:38:31;3.75;;;2.85;;
9465;SDS011;4771;48.726;9.006;2023-05-07T07:40:59;3.03;;;2.47;;
9465;SDS011;4771;48.726;9.006;2023-05-07T07:43:26;5.75;;;2.40;;
9465;SDS011;4771;48.726;9.006;2023-05-07T07:45:53;2.55;;;2.22;;
9465;SDS011;4771;48.726;9.006;2023-05-07T07:48:20;2.60;;;2.33;;
9465;SDS011;4771;48.726;9.006;2023-05-07T07:50:48;2.97;;;2.00;;
9465;SDS011;4771;48.726;9.006;2023-05-07T07:53:15;3.33;;;2.28;;
9465;SDS011;4771;48.726;9.006;2023-05-07T07:55:42;2.40;;;2.20;;
9465;SDS011;4771;48.726;9.006;2023-05-07T07:58:10;2.97;;;2.13;;
9465;SDS011;4771;48.726;9.006;2023-05-07T08:00:37;3.25;;;1.98;;
9465;SDS011;4771;48.726;9.006;2023-05-07T08:03:04;4.32;;;2.28;;
9465;SDS011;4771;48.726;9.006;2023-05-07T08:05:32;2.40;;;2.20;;
9465;SDS011;4771;48.726;9.006;2023-05-07T08:07:59;3.15;;;2.05;;
9465;SDS011;4771;48.726;9.006;2023-05-07T08:10:26;2.72;;;2.05;;
9465;SDS011;4771;48.726;9.006;2023-05-07T08:12:53;2.50;;;2.30;;
9465;SDS011;4771;48.726;9.006;2023-05-07T08:15:21;4.47;;;2.35;;
9465;SDS011;4771;48.726;9.006;2023-05-07T08:17:48;2.67;;;2.33;;
9465;SDS011;4771;48.726;9.006;2023-05-07T08:20:15;2.90;;;1.80;;
9465;SDS011;4771;48.726;9.006;2023-05-07T08:22:42;3.80;;;1.85;;
9465;SDS011;4771;48.726;9.006;2023-05-07T08:25:09;2.80;;;2.00;;
9465;SDS011;4771;48.726;9.006;2023-05-07T08:27:35;2.65;;;1.77;;
9465;SDS011;4771;48.726;9.006;2023-05-07T08:30:03;2.47;;;1.90;;
9465;SDS011;4771;48.726;9.006;2023-05-07T08:32:32;3.20;;;2.08;;
9465;SDS011;4771;48.726;9.006;2023-05-07T08:34:59;5.82;;;2.10;;
9465;SDS011;4771;48.726;9.006;2023-05-07T08:37:26;4.20;;;1.83;;
9465;SDS011;4771;48.726;9.006;2023-05-07T08:39:53;2.17;;;1.63;;
9465;SDS011;4771;48.726;9.006;2023-05-07T08:42:20;2.83;;;1.77;;
9465;SDS011;4771;48.726;9.006;2023-05-07T08:44:49;2.47;;;1.95;;
9465;SDS011;4771;48.726;9.006;2023-05-07T08:47:18;2.13;;;1.90;;
9465;SDS011;4771;48.726;9.006;2023-05-07T08:49:49;5.03;;;1.60;;
9465;SDS011;4771;48.726;9.006;2023-05-07T08:52:17;2.15;;;1.67;;
9465;SDS011;4771;48.726;9.006;2023-05-07T08:54:45;3.72;;;1.65;;
9465;SDS011;4771;48.726;9.006;2023-05-07T08:57:12;2.75;;;1.70;;
9465;SDS011;4771;48.726;9.006;2023-05-07T08:59:39;3.33;;;1.80;;
9465;SDS011;4771;48.726;9.006;2023-05-07T09:02:07;3.45;;;1.80;;
9465;SDS011;4771;48.726;9.006;2023-05-07T09:04:36;2.72;;;1.80;;
9465;SDS011;4771;48.726;9.006;2023-05-07T09:07:04;2.10;;;1.90;;
9465;SDS011;4771;48.726;9.006;2023-05-07T09:09:31;3.05;;;1.88;;
9465;SDS011;4771;48.726;9.006;2023-05-07T09:11:59;3.20;;;1.92;;
9465;SDS011;4771;48.726;9.006;2023-05-07T09:14:27;5.00;;;2.10;;
9465;SDS011;4771;48.726;9.006;2023-05-07T09:16:54;3.15;;;1.80;;
9465;SDS011;4771;48.726;9.006;2023-05-07T09:19:22;2.97;;;1.73;;
9465;SDS011;4771;48.726;9.006;2023-05-07T09:21:49;2.00;;;1.80;;
9465;SDS011;4771;48.726;9.006;2023-05-07T09:24:25;2.00;;;1.60;;
9465;SDS011;4771;48.726;9.006;2023-05-07T09:26:53;2.15;;;1.55;;
9465;SDS011;4771;48.726;9.006;2023-05-07T09:29:21;4.00;;;1.80;;
9465;SDS011;4771;48.726;9.006;2023-05-07T09:31:48;1.92;;;1.50;;
9465;SDS011;4771;48.726;9.006;2023-05-07T09:34:15;4.15;;;1.50;;
9465;SDS011;4771;48.726;9.006;2023-05-07T09:36:42;1.92;;;1.70;;
9465;SDS011;4771;48.726;9.006;2023-05-07T09:39:09;2.85;;;1.80;;
9465;SDS011;4771;48.726;9.006;2023-05-07T09:41:44;2.90;;;1.55;;
9465;SDS011;4771;48.726;9.006;2023-05-07T09:44:12;2.38;;;2.00;;
9465;SDS011;4771;48.726;9.006;2023-05-07T09:46:41;4.72;;;1.90;;
9465;SDS011;4771;48.726;9.006;2023-05-07T09:49:11;2.13;;;1.88;;
9465;SDS011;4771;48.726;9.006;2023-05-07T09:51:43;3.47;;;1.83;;
9465;SDS011;4771;48.726;9.006;2023-05-07T09:54:14;5.20;;;1.88;;
9465;SDS011;4771;48.726;9.006;2023-05-07T09:56:43;3.05;;;2.00;;
9465;SDS011;4771;48.726;9.006;2023-05-07T09:59:12;5.03;;;1.90;;
9465;SDS011;4771;48.726;9.006;2023-05-07T10:01:40;5.57;;;1.83;;
9465;SDS011;4771;48.726;9.006;2023-05-07T10:04:08;3.03;;;1.80;;
9465;SDS011;4771;48.726;9.006;2023-05-07T10:06:35;2.72;;;1.98;;
9465;SDS011;4771;48.726;9.006;2023-05-07T10:09:02;3.90;;;2.00;;
9465;SDS011;4771;48.726;9.006;2023-05-07T10:11:31;2.95;;;2.00;;
9465;SDS011;4771;48.726;9.006;2023-05-07T10:14:00;2.65;;;1.92;;
9465;SDS011;4771;48.726;9.006;2023-05-07T10:16:28;3.70;;;1.95;;
9465;SDS011;4771;48.726;9.006;2023-05-07T10:19:02;3.08;;;2.00;;
9465;SDS011;4771;48.726;9.006;2023-05-07T10:21:29;2.80;;;2.03;;
9465;SDS011;4771;48.726;9.006;2023-05-07T10:23:58;2.95;;;1.85;;
9465;SDS011;4771;48.726;9.006;2023-05-07T10:26:27;2.80;;;1.80;;
9465;SDS011;4771;48.726;9.006;2023-05-07T10:28:56;3.58;;;1.90;;
9465;SDS011;4771;48.726;9.006;2023-05-07T10:31:34;5.75;;;2.00;;
9465;SDS011;4771;48.726;9.006;2023-05-07T10:34:15;2.17;;;1.90;;
9465;SDS011;4771;48.726;9.006;2023-05-07T10:36:46;3.25;;;2.10;;
9465;SDS011;4771;48.726;9.006;2023-05-07T10:39:13;3.00;;;2.10;;
9465;SDS011;4771;48.726;9.006;2023-05-07T10:41:40;3.38;;;1.95;;
9465;SDS011;4771;48.726;9.006;2023-05-07T10:44:07;2.40;;;2.05;;
9465;SDS011;4771;48.726;9.006;2023-05-07T10:46:36;2.53;;;1.77;;
9465;SDS011;4771;48.726;9.006;2023-05-07T10:49:06;2.13;;;1.67;;
9465;SDS011;4771;48.726;9.006;2023-05-07T10:51:37;1.85;;;1.65;;
9465;SDS011;4771;48.726;9.006;2023-05-07T10:54:20;2.72;;;1.70;;
9465;SDS011;4771;48.726;9.006;2023-05-07T10:56:48;5.13;;;2.08;;
9465;SDS011;4771;48.726;9.006;2023-05-07T10:59:32;3.45;;;1.70;;
9465;SDS011;4771;48.726;9.006;2023-05-07T11:02:07;2.55;;;2.00;;
9465;SDS011;4771;48.726;9.006;2023-05-07T11:04:36;2.55;;;1.80;;
9465;SDS011;4771;48.726;9.006;2023-05-07T11:10:03;3.05;;;1.70;;
9465;SDS011;4771;48.726;9.006;2023-05-07T11:12:46;2.47;;;1.80;;
9465;SDS011;4771;48.726;9.006;2023-05-07T11:15:14;1.83;;;1.63;;
9465;SDS011;4771;48.726;9.006;2023-05-07T11:17:53;3.10;;;1.50;;
9465;SDS011;4771;48.726;9.006;2023-05-07T11:20:20;2.97;;;1.77;;
9465;SDS011;4771;48.726;9.006;2023-05-07T11:23:12;2.25;;;1.60;;
9465;SDS011;4771;48.726;9.006;2023-05-07T11:26:13;2.42;;;1.63;;
9465;SDS011;4771;48.726;9.006;2023-05-07T11:28:42;3.58;;;1.45;;
9465;SDS011;4771;48.726;9.006;2023-05-07T11:31:09;2.08;;;1.70;;
9465;SDS011;4771;48.726;9.006;2023-05-07T11:33:38;3.15;;;1.80;;
9465;SDS011;4771;48.726;9.006;2023-05-07T11:36:07;3.03;;;1.75;;
9465;SDS011;4771;48.726;9.006;2023-05-07T11:38:35;2.83;;;1.80;;
9465;SDS011;4771;48.726;9.006;2023-05-07T11:41:02;3.00;;;2.17;;
9465;SDS011;4771;48.726;9.006;2023-05-07T11:43:30;5.72;;;1.90;;
9465;SDS011;4771;48.726;9.006;2023-05-07T11:46:04;3.60;;;1.90;;
9465;SDS011;4771;48.726;9.006;2023-05-07T11:48:33;3.05;;;1.80;;
9465;SDS011;4771;48.726;9.006;2023-05-07T11:51:02;6.32;;;1.92;;
9465;SDS011;4771;48.726;9.006;2023-05-07T11:53:35;3.33;;;1.80;;
9465;SDS011;4771;48.726;9.006;2023-05-07T11:56:05;6.13;;;2.40;;
9465;SDS011;4771;48.726;9.006;2023-05-07T11:58:33;4.80;;;1.90;;
9465;SDS011;4771;48.726;9.006;2023-05-07T12:01:00;4.25;;;1.50;;
9465;SDS011;4771;48.726;9.006;2023-05-07T12:03:27;8.23;;;2.00;;
9465;SDS011;4771;48.726;9.006;2023-05-07T12:05:54;6.13;;;2.10;;
9465;SDS011;4771;48.726;9.006;2023-05-07T12:08:22;10.98;;;1.80;;
9465;SDS011;4771;48.726;9.006;2023-05-07T12:10:49;6.85;;;2.20;;
9465;SDS011;4771;48.726;9.006;2023-05-07T12:13:17;4.95;;;2.03;;
9465;SDS011;4771;48.726;9.006;2023-05-07T12:15:45;5.65;;;2.67;;
9465;SDS011;4771;48.726;9.006;2023-05-07T12:18:12;6.35;;;2.13;;
9465;SDS011;4771;48.726;9.006;2023-05-07T12:20:40;8.77;;;2.30;;
9465;SDS011;4771;48.726;9.006;2023-05-07T12:23:07;8.20;;;2.13;;
9465;SDS011;4771;48.726;9.006;2023-05-07T12:25:35;5.43;;;2.20;;
9465;SDS011;4771;48.726;9.006;2023-05-07T12:28:03;7.60;;;2.40;;
9465;SDS011;4771;48.726;9.006;2023-05-07T12:30:31;8.48;;;2.50;;
9465;SDS011;4771;48.726;9.006;2023-05-07T12:32:58;8.23;;;2.40;;
9465;SDS011;4771;48.726;9.006;2023-05-07T12:35:28;4.07;;;2.35;;
9465;SDS011;4771;48.726;9.006;2023-05-07T12:37:55;4.78;;;2.35;;
9465;SDS011;4771;48.726;9.006;2023-05-07T12:40:23;5.60;;;2.20;;
9465;SDS011;4771;48.726;9.006;2023-05-07T12:42:53;6.68;;;2.35;;
9465;SDS011;4771;48.726;9.006;2023-05-07T12:45:20;5.03;;;2.00;;
9465;SDS011;4771;48.726;9.006;2023-05-07T12:47:47;6.40;;;1.90;;
9465;SDS011;4771;48.726;9.006;2023-05-07T12:50:17;13.75;;;2.08;;
9465;SDS011;4771;48.726;9.006;2023-05-07T12:52:46;4.15;;;1.90;;
9465;SDS011;4771;48.726;9.006;2023-05-07T12:55:14;5.10;;;1.95;;
9465;SDS011;4771;48.726;9.006;2023-05-07T12:57:43;4.72;;;1.90;;
9465;SDS011;4771;48.726;9.006;2023-05-07T13:00:15;4.80;;;1.88;;
9465;SDS011;4771;48.726;9.006;2023-05-07T13:02:43;2.90;;;1.80;;
9465;SDS011;4771;48.726;9.006;2023-05-07T13:05:11;2.55;;;1.70;;
9465;SDS011;4771;48.726;9.006;2023-05-07T13:07:38;5.00;;;1.80;;
9465;SDS011;4771;48.726;9.006;2023-05-07T13:10:06;3.60;;;2.00;;
9465;SDS011;4771;48.726;9.006;2023-05-07T13:12:34;4.03;;;1.88;;
9465;SDS011;4771;48.726;9.006;2023-05-07T13:15:01;2.70;;;2.00;;
9465;SDS011;4771;48.726;9.006;2023-05-07T13:17:29;4.00;;;1.65;;
9465;SDS011;4771;48.726;9.006;2023-05-07T13:19:56;2.85;;;2.15;;
9465;SDS011;4771;48.726;9.006;2023-05-07T13:22:23;6.82;;;2.08;;
9465;SDS011;4771;48.726;9.006;2023-05-07T13:24:50;3.25;;;2.15;;
9465;SDS011;4771;48.726;9.006;2023-05-07T13:27:17;3.45;;;2.10;;
9465;SDS011;4771;48.726;9.006;2023-05-07T13:29:45;3.58;;;2.40;;
9465;SDS011;4771;48.726;9.006;2023-05-07T13:32:12;3.42;;;2.40;;
9465;SDS011;4771;48.726;9.006;2023-05-07T13:34:41;4.50;;;2.33;;
9465;SDS011;4771;48.726;9.006;2023-05-07T13:37:08;2.83;;;2.22;;
9465;SDS011;4771;48.726;9.006;2023-05-07T13:39:36;5.50;;;2.42;;
9465;SDS011;4771;48.726;9.006;2023-05-07T13:42:02;3.65;;;2.38;;
9465;SDS011;4771;48.726;9.006;2023-05-07T13:44:29;3.70;;;2.35;;
9465;SDS011;4771;48.726;9.006;2023-05-07T13:46:56;3.58;;;2.33;;
9465;SDS011;4771;48.726;9.006;2023-05-07T13:49:23;2.30;;;2.10;;
9465;SDS011;4771;48.726;9.006;2023-05-07T13:51:52;5.47;;;2.25;;
9465;SDS011;4771;48.726;9.006;2023-05-07T13:54:19;2.78;;;2.30;;
9465;SDS011;4771;48.726;9.006;2023-05-07T13:56:45;4.68;;;2.67;;
9465;SDS011;4771;48.726;9.006;2023-05-07T13:59:12;5.95;;;2.70;;
9465;SDS011;4771;48.726;9.006;2023-05-07T14:01:40;3.17;;;2.80;;
9465;SDS011;4771;48.726;9.006;2023-05-07T14:04:07;3.95;;;2.80;;
9465;SDS011;4771;48.726;9.006;2023-05-07T14:06:34;4.43;;;2.67;;
9465;SDS011;4771;48.726;9.006;2023-05-07T14:09:02;3.65;;;2.65;;
9465;SDS011;4771;48.726;9.006;2023-05-07T14:11:29;5.75;;;2.70;;
9465;SDS011;4771;48.726;9.006;2023-05-07T14:13:56;5.60;;;3.10;;
9465;SDS011;4771;48.726;9.006;2023-05-07T14:16:23;4.97;;;2.90;;
9465;SDS011;4771;48.726;9.006;2023-05-07T14:18:50;4.97;;;2.95;;
9465;SDS011;4771;48.726;9.006;2023-05-07T14:21:17;5.60;;;2.70;;
9465;SDS011;4771;48.726;9.006;2023-05-07T14:23:44;5.85;;;3.00;;
9465;SDS011;4771;48.726;9.006;2023-05-07T14:26:13;4.20;;;3.10;;
9465;SDS011;4771;48.726;9.006;2023-05-07T14:28:40;4.05;;;3.08;;
9465;SDS011;4771;48.726;9.006;2023-05-07T14:31:11;5.57;;;2.83;;
9465;SDS011;4771;48.726;9.006;2023-05-07T14:33:38;4.10;;;2.55;;
9465;SDS011;4771;48.726;9.006;2023-05-07T14:36:04;5.50;;;2.85;;
9465;SDS011;4771;48.726;9.006;2023-05-07T14:38:32;4.43;;;3.00;;
9465;SDS011;4771;48.726;9.006;2023-05-07T14:40:59;5.10;;;2.67;;
9465;SDS011;4771;48.726;9.006;2023-05-07T14:43:27;3.78;;;2.83;;
9465;SDS011;4771;48.726;9.006;2023-05-07T14:45:54;3.05;;;2.40;;
9465;SDS011;4771;48.726;9.006;2023-05-07T14:48:21;3.67;;;2.55;;
9465;SDS011;4771;48.726;9.006;2023-05-07T14:50:48;3.75;;;2.53;;
9465;SDS011;4771;48.726;9.006;2023-05-07T14:53:15;5.80;;;2.72;;
9465;SDS011;4771;48.726;9.006;2023-05-07T14:55:41;4.35;;;2.70;;
9465;SDS011;4771;48.726;9.006;2023-05-07T14:58:08;6.50;;;2.90;;
9465;SDS011;4771;48.726;9.006;2023-05-07T15:00:37;7.53;;;2.90;;
9465;SDS011;4771;48.726;9.006;2023-05-07T15:03:05;4.68;;;2.50;;
9465;SDS011;4771;48.726;9.006;2023-05-07T15:05:33;3.78;;;2.38;;
9465;SDS011;4771;48.726;9.006;2023-05-07T15:08:00;3.10;;;2.47;;
9465;SDS011;4771;48.726;9.006;2023-05-07T15:10:27;3.47;;;2.35;;
9465;SDS011;4771;48.726;9.006;2023-05-07T15:12:53;2.97;;;2.40;;
9465;SDS011;4771;48.726;9.006;2023-05-07T15:15:20;2.38;;;2.10;;
9465;SDS011;4771;48.726;9.006;2023-05-07T15:17:49;2.92;;;2.30;;
9465;SDS011;4771;48.726;9.006;2023-05-07T15:20:15;3.88;;;2.47;;
9465;SDS011;4771;48.726;9.006;2023-05-07T15:22:42;4.80;;;2.20;;